Brookings, Oregon
Current Conditions -  °F | °C
As of 7:56 AM on Thursday 27 Nov 2014 (Local Time) from KBOK Reporting Station
Overcast Overcast  
Wind Chill: 57°   Ceiling: 1300
Heat Index: 57°   Visibility: 9mi
Dew Point: 52°   Wind: 7mph
Humidity: 84%   Direction: 140°SE
Pressure: 30.08"   Gusts: NA
Location:  42.05°N, 124.28°W
Report Text: KBOK 271556Z AUTO 14006KT 9SM OVC013 14/11 A3008 RMK AO2 T01380111 SLP186
Loading
Personal Weather Stations






























Interactive Weather Map New forecast layout! Learn more

10-Day Weather Forecast

Advertisements
Track Severe Weather on mobile